Time;durP1;ratioP1;P1;durP2;ratioP2;P2;SDS_P1;SDS_P2;PMS_P1;PMS_P2;Temp;Humidity;BMP_temperature;BMP_pressure;BME280_temperature;BME280_humidity;BME280_pressure;Samples;Min_cycle;Max_cycle;Signal;HPM_P1;HPM_P2
2021/12/17 00:01:00;;;;;;;23.27;11.98;;;;;;;;;;10209385;29;20043;-84
2021/12/17 00:06:13;;;;;;;20.48;11.25;;;;;;;;;;10204616;29;20047;-87
2021/12/17 00:11:14;;;;;;;28.52;11.75;;;;;;;;;;10201479;29;20295;-86
2021/12/17 00:16:20;;;;;;;17.70;10.77;;;;;;;;;;10224072;29;20563;-86
2021/12/17 00:53:18;;;;;;;18.80;9.48;;;;;;;;;;10246795;29;20509;-84
2021/12/17 00:58:19;;;;;;;16.63;9.77;;;;;;;;;;10247100;29;20045;-85
2021/12/17 01:03:19;;;;;;;18.80;9.90;;;;;;;;;;10243307;29;20044;-85
2021/12/17 01:08:19;;;;;;;16.77;9.93;;;;;;;;;;10259960;29;20045;-85
2021/12/17 01:13:20;;;;;;;14.55;8.77;;;;;;;;;;10261204;29;20031;-85
2021/12/17 01:18:23;;;;;;;15.38;8.70;;;;;;;;;;10260054;29;20464;-85
2021/12/17 01:44:07;;;;;;;15.40;8.63;;;;;;;;;;10259241;29;19914;-84
2021/12/17 01:59:51;;;;;;;;;;;;;;;;;;10070453;29;20191;-83
2021/12/17 02:04:51;;;;;;;15.45;8.00;;;;;;;;;;10096976;29;20032;-83
2021/12/17 02:31:32;;;;;;;10.85;7.28;;;;;;;;;;10244302;29;20125;-86
2021/12/17 02:36:35;;;;;;;12.83;8.07;;;;;;;;;;10238609;29;20052;-87
2021/12/17 02:46:55;;;;;;;11.98;6.78;;;;;;;;;;10257153;29;20043;-86
2021/12/17 02:51:55;;;;;;;16.38;7.22;;;;;;;;;;10243462;29;20380;-86
2021/12/17 02:56:56;;;;;;;9.95;6.35;;;;;;;;;;10255389;29;20077;-86
2021/12/17 03:01:56;;;;;;;11.30;7.05;;;;;;;;;;10245912;29;20586;-85
2021/12/17 03:06:57;;;;;;;10.00;6.68;;;;;;;;;;10220565;28;20054;-85
2021/12/17 03:11:57;;;;;;;10.32;6.63;;;;;;;;;;10257520;28;20041;-86
2021/12/17 03:17:07;;;;;;;8.88;6.40;;;;;;;;;;10255096;29;20531;-86
2021/12/17 03:27:26;;;;;;;9.38;6.40;;;;;;;;;;10214948;29;20047;-86
2021/12/17 03:32:27;;;;;;;9.50;5.95;;;;;;;;;;10244558;29;20457;-86
2021/12/17 03:37:27;;;;;;;11.60;6.70;;;;;;;;;;10255361;29;20380;-87
2021/12/17 03:42:27;;;;;;;9.43;5.97;;;;;;;;;;10254900;29;20090;-87
2021/12/17 03:47:27;;;;;;;9.98;6.10;;;;;;;;;;10254372;29;20032;-87
2021/12/17 03:52:28;;;;;;;9.75;5.72;;;;;;;;;;10230456;29;20400;-87
2021/12/17 03:57:28;;;;;;;11.65;6.00;;;;;;;;;;10252648;29;20039;-87
2021/12/17 04:02:28;;;;;;;9.90;5.72;;;;;;;;;;10253521;29;20122;-87
2021/12/17 04:07:29;;;;;;;9.35;6.07;;;;;;;;;;10253821;29;20397;-88
2021/12/17 04:12:55;;;;;;;8.68;5.55;;;;;;;;;;10246243;29;20122;-90
2021/12/17 04:17:55;;;;;;;9.98;5.38;;;;;;;;;;10251277;29;20085;-88
2021/12/17 04:22:55;;;;;;;9.82;5.35;;;;;;;;;;10254395;29;20082;-86
2021/12/17 04:27:56;;;;;;;11.65;5.00;;;;;;;;;;10241776;29;20366;-86
2021/12/17 04:32:56;;;;;;;9.30;5.70;;;;;;;;;;10222494;29;20041;-85
2021/12/17 04:37:56;;;;;;;9.25;4.90;;;;;;;;;;10253301;29;20082;-86
2021/12/17 04:58:37;;;;;;;7.35;5.00;;;;;;;;;;10251556;29;20035;-87
2021/12/17 05:03:38;;;;;;;9.65;4.78;;;;;;;;;;10252831;29;20040;-88
2021/12/17 05:08:38;;;;;;;8.77;5.10;;;;;;;;;;10252579;29;20043;-86
2021/12/17 05:19:06;;;;;;;5.97;4.60;;;;;;;;;;10236810;29;20783;-86
2021/12/17 05:24:06;;;;;;;8.02;5.60;;;;;;;;;;10251419;29;20027;-86
2021/12/17 05:29:07;;;;;;;6.18;4.15;;;;;;;;;;10243065;28;20039;-86
2021/12/17 05:34:07;;;;;;;6.17;4.47;;;;;;;;;;10259402;29;20469;-86
2021/12/17 05:39:07;;;;;;;7.63;4.57;;;;;;;;;;10258791;29;20516;-86
2021/12/17 05:44:07;;;;;;;6.47;4.90;;;;;;;;;;10259036;29;20122;-85
2021/12/17 05:49:08;;;;;;;6.20;4.57;;;;;;;;;;10257076;29;20039;-85
2021/12/17 05:54:08;;;;;;;7.70;4.68;;;;;;;;;;10218912;29;20048;-86
2021/12/17 05:59:08;;;;;;;5.75;4.28;;;;;;;;;;10234125;29;20039;-86
2021/12/17 06:04:09;;;;;;;7.85;5.43;;;;;;;;;;10258508;29;20053;-86
2021/12/17 06:09:09;;;;;;;6.53;5.18;;;;;;;;;;10257248;29;20035;-89
2021/12/17 06:14:09;;;;;;;9.93;5.10;;;;;;;;;;10257421;29;20049;-86
2021/12/17 06:19:10;;;;;;;10.07;6.47;;;;;;;;;;10255128;29;20485;-87
2021/12/17 06:24:10;;;;;;;8.35;6.15;;;;;;;;;;10257451;29;20079;-87
2021/12/17 06:29:10;;;;;;;7.10;5.78;;;;;;;;;;10257028;29;20038;-85
2021/12/17 06:34:10;;;;;;;5.75;4.40;;;;;;;;;;10255956;29;20051;-89
2021/12/17 06:39:11;;;;;;;9.43;4.38;;;;;;;;;;10256485;28;20035;-83
2021/12/17 06:44:14;;;;;;;6.07;4.50;;;;;;;;;;10256823;29;20082;-84
2021/12/17 06:54:36;;;;;;;11.65;4.57;;;;;;;;;;10256090;29;20039;-83
2021/12/17 06:59:55;;;;;;;10.27;4.93;;;;;;;;;;10256006;29;20043;-82
2021/12/17 07:38:35;;;;;;;16.48;5.10;;;;;;;;;;10254235;29;20059;-83
2021/12/17 07:42:04;;;;;;;9.25;5.22;;;;;;;;;;10254262;29;20478;-85
2021/12/17 07:47:04;;;;;;;17.90;5.23;;;;;;;;;;10254763;29;20039;-85
2021/12/17 07:52:05;;;;;;;13.45;5.20;;;;;;;;;;10253386;28;20971;-85
2021/12/17 07:57:05;;;;;;;11.60;5.03;;;;;;;;;;10254269;29;20536;-85
2021/12/17 08:02:06;;;;;;;11.07;4.82;;;;;;;;;;10254534;29;20031;-85
2021/12/17 08:07:06;;;;;;;10.00;4.70;;;;;;;;;;10253729;29;20385;-85
2021/12/17 08:12:09;;;;;;;9.85;5.30;;;;;;;;;;10253408;29;20037;-85
2021/12/17 08:17:43;;;;;;;8.90;4.88;;;;;;;;;;10253801;29;20077;-85
2021/12/17 08:28:08;;;;;;;7.60;5.10;;;;;;;;;;10253492;29;20047;-85
2021/12/17 08:33:09;;;;;;;8.35;4.50;;;;;;;;;;10252977;29;20036;-85
2021/12/17 08:38:09;;;;;;;7.90;5.10;;;;;;;;;;10236128;29;20385;-86
2021/12/17 08:43:10;;;;;;;9.07;5.40;;;;;;;;;;10253438;29;20122;-86
2021/12/17 08:48:10;;;;;;;28.02;5.57;;;;;;;;;;10253284;29;20473;-85
2021/12/17 08:53:10;;;;;;;8.18;4.78;;;;;;;;;;10253795;29;20035;-85
2021/12/17 08:58:13;;;;;;;9.35;5.20;;;;;;;;;;10252265;29;20039;-85
2021/12/17 09:03:14;;;;;;;8.90;5.72;;;;;;;;;;10255553;28;20031;-86
2021/12/17 09:08:14;;;;;;;15.87;6.20;;;;;;;;;;10260736;29;20125;-85
2021/12/17 09:13:15;;;;;;;10.38;5.25;;;;;;;;;;10260896;29;20070;-85
2021/12/17 09:18:15;;;;;;;10.65;5.22;;;;;;;;;;10259859;29;20430;-86
2021/12/17 09:23:15;;;;;;;8.90;5.20;;;;;;;;;;10259634;29;20043;-86
2021/12/17 09:28:15;;;;;;;13.60;5.18;;;;;;;;;;10259498;29;20035;-86
2021/12/17 09:33:16;;;;;;;10.25;5.55;;;;;;;;;;10265082;23;20059;-76
2021/12/17 09:38:16;;;;;;;9.68;5.95;;;;;;;;;;10252361;29;20047;-77
2021/12/17 09:43:16;;;;;;;12.70;5.80;;;;;;;;;;10257262;29;20028;-77
2021/12/17 09:48:19;;;;;;;10.52;5.70;;;;;;;;;;10256928;29;20031;-77
2021/12/17 09:53:19;;;;;;;8.30;5.47;;;;;;;;;;10258254;29;20102;-76
2021/12/17 09:58:19;;;;;;;10.23;5.93;;;;;;;;;;10258436;29;20528;-77
2021/12/17 10:03:20;;;;;;;9.63;5.63;;;;;;;;;;10258652;29;20358;-78
2021/12/17 10:08:21;;;;;;;11.27;5.80;;;;;;;;;;10250203;29;20481;-77
2021/12/17 10:13:22;;;;;;;11.95;5.78;;;;;;;;;;10257667;28;20377;-78
